地図

経路データ

SID SEASON NUMBER BASIN SUBBASIN NAME ISO_TIME NATURE LAT LON WMO_WIND WMO_PRES WMO_AGENCY TRACK_TYPE DIST2LAND LANDFALL IFLAG USA_AGENCY USA_ATCF_ID USA_LAT USA_LON USA_RECORD USA_STATUS USA_WIND USA_PRES USA_SSHS USA_R34_NE USA_R34_SE USA_R34_SW USA_R34_NW USA_R50_NE USA_R50_SE USA_R50_SW USA_R50_NW USA_R64_NE USA_R64_SE USA_R64_SW USA_R64_NW USA_POCI USA_ROCI USA_RMW USA_EYE TOKYO_LAT TOKYO_LON TOKYO_GRADE TOKYO_WIND TOKYO_PRES TOKYO_R50_DIR TOKYO_R50_LONG TOKYO_R50_SHORT TOKYO_R30_DIR TOKYO_R30_LONG TOKYO_R30_SHORT TOKYO_LAND CMA_LAT CMA_LON CMA_CAT CMA_WIND CMA_PRES HKO_LAT HKO_LON HKO_CAT HKO_WIND HKO_PRES NEWDELHI_LAT NEWDELHI_LON NEWDELHI_GRADE NEWDELHI_WIND NEWDELHI_PRES NEWDELHI_CI NEWDELHI_DP NEWDELHI_POCI REUNION_LAT REUNION_LON REUNION_TYPE REUNION_WIND REUNION_PRES REUNION_TNUM REUNION_CI REUNION_RMW REUNION_R34_NE REUNION_R34_SE REUNION_R34_SW REUNION_R34_NW REUNION_R50_NE REUNION_R50_SE REUNION_R50_SW REUNION_R50_NW REUNION_R64_NE REUNION_R64_SE REUNION_R64_SW REUNION_R64_NW BOM_LAT BOM_LON BOM_TYPE BOM_WIND BOM_PRES BOM_TNUM BOM_CI BOM_RMW BOM_R34_NE BOM_R34_SE BOM_R34_SW BOM_R34_NW BOM_R50_NE BOM_R50_SE BOM_R50_SW BOM_R50_NW BOM_R64_NE BOM_R64_SE BOM_R64_SW BOM_R64_NW BOM_ROCI BOM_POCI BOM_EYE BOM_POS_METHOD BOM_PRES_METHOD NADI_LAT NADI_LON NADI_CAT NADI_WIND NADI_PRES WELLINGTON_LAT WELLINGTON_LON WELLINGTON_WIND WELLINGTON_PRES DS824_LAT DS824_LON DS824_STAGE DS824_WIND DS824_PRES TD9636_LAT TD9636_LON TD9636_STAGE TD9636_WIND TD9636_PRES TD9635_LAT TD9635_LON TD9635_WIND TD9635_PRES TD9635_ROCI NEUMANN_LAT NEUMANN_LON NEUMANN_CLASS NEUMANN_WIND NEUMANN_PRES MLC_LAT MLC_LON MLC_CLASS MLC_WIND MLC_PRES USA_GUST BOM_GUST BOM_GUST_PER REUNION_GUST REUNION_GUST_PER USA_SEAHGT USA_SEARAD_NE USA_SEARAD_SE USA_SEARAD_SW USA_SEARAD_NW STORM_SPEED STORM_DIR
1999045N11138 1999 15 WP MM IRIS 1999-02-13 18:00:00 NR 11.2000 137.700 main 1277 1254 O_____________ jtwc_wp WP021999 11.2000 137.700 20 -1 5 240
1999045N11138 1999 15 WP MM IRIS 1999-02-13 21:00:00 NR 11.0850 137.500 main 1254 1230 P_____________ WP021999 11.0850 137.500 20 -1 4 243
1999045N11138 1999 15 WP MM IRIS 1999-02-14 00:00:00 NR 11.0000 137.300 main 1230 1209 O_____________ jtwc_wp WP021999 11.0000 137.300 20 -1 4 254
1999045N11138 1999 15 WP MM IRIS 1999-02-14 03:00:00 NR 10.9700 137.100 main 1209 1187 P_____________ WP021999 10.9700 137.100 20 -1 4 270
1999045N11138 1999 15 WP MM IRIS 1999-02-14 06:00:00 NR 11.0000 136.900 main 1187 1168 O_____________ jtwc_wp WP021999 11.0000 136.900 20 -1 4 288
1999045N11138 1999 15 WP MM IRIS 1999-02-14 09:00:00 NR 11.1000 136.700 main 1168 1149 P_____________ WP021999 11.1000 136.700 20 -1 4 297
1999045N11138 1999 15 WP MM IRIS 1999-02-14 12:00:00 NR 11.2000 136.500 main 1149 1128 O_____________ jtwc_wp WP021999 11.2000 136.500 20 -1 4 286
1999045N11138 1999 15 WP MM IRIS 1999-02-14 15:00:00 NR 11.2150 136.300 main 1128 1107 P_____________ WP021999 11.2150 136.300 22 -1 4 270
1999045N11138 1999 15 WP MM IRIS 1999-02-14 18:00:00 NR 11.2000 136.100 main 1107 1085 O_____________ jtwc_wp WP021999 11.2000 136.100 25 -1 4 267
1999045N11138 1999 15 WP MM IRIS 1999-02-14 21:00:00 NR 11.1925 135.907 main 1085 1064 P_____________ WP021999 11.1925 135.907 22 -1 4 270
1999045N11138 1999 15 WP MM IRIS 1999-02-15 00:00:00 NR 11.2000 135.700 main 1064 1042 O_____________ jtwc_wp WP021999 11.2000 135.700 20 -1 4 277
1999045N11138 1999 15 WP MM IRIS 1999-02-15 03:00:00 NR 11.2425 135.465 main 1042 1013 P_____________ WP021999 11.2425 135.465 20 -1 5 282
1999045N11138 1999 15 WP MM IRIS 1999-02-15 06:00:00 NR 11.3000 135.200 main 1013 981 O_____________ jtwc_wp WP021999 11.3000 135.200 20 -1 6 281
1999045N11138 1999 15 WP MM IRIS 1999-02-15 09:00:00 NR 11.3500 134.908 main 981 952 P_____________ WP021999 11.3500 134.908 20 -1 6 280
1999045N11138 1999 15 WP MM IRIS 1999-02-15 12:00:00 NR 11.4000 134.600 main 952 920 O_____________ jtwc_wp WP021999 11.4000 134.600 20 -1 6 279
1999045N11138 1999 15 WP MM IRIS 1999-02-15 15:00:00 NR 11.4424 134.307 main 920 891 P_____________ WP021999 11.4424 134.307 20 -1 6 280
1999045N11138 1999 15 WP MM IRIS 1999-02-15 18:00:00 NR 11.5000 134.000 main 891 853 O_____________ jtwc_wp WP021999 11.5000 134.000 20 -1 7 283
1999045N11138 1999 15 WP MM IRIS 1999-02-15 21:00:00 NR 11.6001 133.628 main 853 811 P_____________ WP021999 11.6001 133.628 22 -1 8 282
1999045N11138 1999 15 WP MM IRIS 1999-02-16 00:00:00 TS 11.6600 133.220 main 811 778 O_O___________ jtwc_wp WP021999 11.7000 133.300 25 -1 11.5000 132.900 1 29 1002 7 276
1999045N11138 1999 15 WP MM IRIS 1999-02-16 03:00:00 TS 11.6775 132.918 main 778 756 P_P___________ WP021999 11.7649 133.127 25 -1 11.5027 132.500 1 29 1002 6 271
1999045N11138 1999 15 WP MM IRIS 1999-02-16 06:00:00 TS 11.6714 132.657 main 756 735 O_O___________ jtwc_wp WP021999 11.8000 133.000 25 -1 11.5000 132.200 1 29 1002 5 267
1999045N11138 1999 15 WP MM IRIS 1999-02-16 09:00:00 TS 11.6499 132.446 main 723 712 P_P___________ WP021999 11.8074 132.830 27 -1 11.4924 132.062 1 29 1002 4 266
1999045N11138 1999 15 WP MM IRIS 1999-02-16 12:00:00 TS 11.6500 132.300 main 713 691 O_O___________ jtwc_wp WP021999 11.8000 132.600 30 -1 11.5000 132.000 1 29 1002 3 272
1999045N11138 1999 15 WP MM IRIS 1999-02-16 15:00:00 TS 11.6599 132.109 main 691 659 P_P___________ WP021999 11.7849 132.310 30 -1 11.5350 131.908 1 29 1002 5 273
1999045N11138 1999 15 WP MM IRIS 1999-02-16 18:00:00 TS 11.6778 131.767 main 659 615 O_OO__________ jtwc_wp WP021999 11.8000 131.900 30 -1 11.6000 131.800 1 29 1002 11.5000 131.100 TD 25 1004 7 277
1999045N11138 1999 15 WP MM IRIS 1999-02-16 21:00:00 TS 11.7420 131.373 main 615 574 P_PP__________ WP021999 11.8774 131.360 32 -1 11.6775 131.672 1 29 1002 11.6000 130.803 TD 27 1003 8 282
1999045N11138 1999 15 WP MM IRIS 1999-02-17 00:00:00 TS 11.8455 130.936 main 563 522 O_OO__________ jtwc_wp WP021999 12.0000 130.700 35 0 11.8000 131.500 1 29 1002 11.7000 130.500 TD 30 1002 9 285
1999045N11138 1999 15 WP MM IRIS 1999-02-17 03:00:00 TS 11.9734 130.469 main 524 484 P_PP__________ WP021999 12.1353 129.920 35 0 11.9849 131.295 1 29 1002 11.8000 130.192 TD 30 1002 9 288
1999045N11138 1999 15 WP MM IRIS 1999-02-17 06:00:00 TS 12.1333 130.033 main 474 445 O_OO__________ jtwc_wp WP021999 12.3000 129.200 35 0 12.2000 131.000 1 29 1002 11.9000 129.900 TD 30 1002 9 292
1999045N11138 1999 15 WP MM IRIS 1999-02-17 09:00:00 TS 12.2949 129.642 main 438 412 P_PP__________ WP021999 12.4997 128.732 35 0 12.4002 130.550 1 29 1002 11.9850 129.642 TD 30 1002 8 295
1999045N11138 1999 15 WP MM IRIS 1999-02-17 12:00:00 TS 12.4667 129.300 main 414 382 O_OO__________ jtwc_wp WP021999 12.7000 128.400 35 0 12.6000 130.100 1 29 1002 12.1000 129.400 TD 30 1002 7 300
1999045N11138 1999 15 WP MM IRIS 1999-02-17 15:00:00 TS 12.6499 129.016 main 382 364 P_PP__________ WP021999 12.8575 128.070 35 0 12.8148 129.827 1 29 1002 12.2775 129.150 TD 27 1003 6 305
1999045N11138 1999 15 WP MM IRIS 1999-02-17 18:00:00 TS 12.8333 128.767 main 364 337 O_OO__________ jtwc_wp WP021999 13.0000 127.800 35 0 13.0000 129.600 1 29 1002 12.5000 128.900 TD 25 1004 6 305
1999045N11138 1999 15 WP MM IRIS 1999-02-17 21:00:00 TS 12.9975 128.509 main 337 309 P_PP__________ WP021999 13.1499 127.585 32 -1 13.1075 129.300 1 26 1003 12.7350 128.642 TD 25 1004 6 301
1999045N11138 1999 15 WP MM IRIS 1999-02-18 00:00:00 TS 13.1636 128.200 main 313 288 O_OO__________ jtwc_wp WP021999 13.3000 127.400 30 -1 13.2000 129.000 1 23 1004 13.0000 128.400 TD 25 1004 7 301
1999045N11138 1999 15 WP MM IRIS 1999-02-18 03:00:00 TS 13.3640 127.893 main 293 276 P_PP__________ WP021999 13.4500 127.192 30 -1 13.3350 128.738 1 23 1004 13.2925 128.170 TD 25 1004 7 307
1999045N11138 1999 15 WP MM IRIS 1999-02-18 06:00:00 TS 13.5889 127.611 main 276 265 O_OO__________ jtwc_wp WP021999 13.6000 127.000 30 -1 13.5000 128.500 1 23 1004 13.6000 128.000 TD 25 1004 7 312
1999045N11138 1999 15 WP MM IRIS 1999-02-18 09:00:00 NR 13.8137 127.374 main 272 272 P__P__________ WP021999 13.7500 126.850 30 -1 1 13.8775 127.898 TD 25 1004 6 327
1999045N11138 1999 15 WP MM IRIS 1999-02-18 12:00:00 NR 14.0500 127.300 main 288 280 O__O__________ jtwc_wp WP021999 13.9000 126.700 30 -1 14.2000 127.900 TD 25 1004 6 345
1999045N11138 1999 15 WP MM IRIS 1999-02-18 15:00:00 NR 14.3462 127.226 main 295 295 P__P__________ WP021999 14.0725 126.478 27 -1 14.6199 127.975 TD 25 1004 6 356
1999045N11138 1999 15 WP MM IRIS 1999-02-18 18:00:00 NR 14.6500 127.250 main 325 325 O__O__________ jtwc_wp WP021999 14.2000 126.300 25 -1 15.1000 128.200 TD 25 1004 6 19
1999045N11138 1999 15 WP MM IRIS 1999-02-18 21:00:00 NR 14.9139 127.428 main 342 342 P__P__________ WP021999 14.2300 126.257 20 -1 15.5978 128.599 TD 25 1004 7 41
1999045N11138 1999 15 WP MM IRIS 1999-02-19 00:00:00 NR 15.1500 127.700 main 383 O__O__________ jtwc_wp WP021999 14.2000 126.300 15 -1 16.1000 129.100 TD 25 1004 7 48

デジタル台風データ・検索

IBTrACS Databaseについて

本データベースは、米国NOAAが公開する1842年以降の世界の熱帯低気圧のベストトラックデータアーカイブInternational Best Track Archive for Climate Stewardship (IBTrACS)を、ウェブで閲覧しやすい形式に変換したものです。

最終更新日:2021-11-26